sensor_id;sensor_type;location;lat;lon;timestamp;temperature;humidity
32506;DHT22;18955;51.224;8.482;2023-04-01T00:01:02;8.30;88.50
32506;DHT22;18955;51.224;8.482;2023-04-01T00:03:29;8.30;88.50
32506;DHT22;18955;51.224;8.482;2023-04-01T00:05:58;8.30;88.50
32506;DHT22;18955;51.224;8.482;2023-04-01T00:08:25;8.30;88.60
32506;DHT22;18955;51.224;8.482;2023-04-01T00:10:52;8.30;88.60
32506;DHT22;18955;51.224;8.482;2023-04-01T00:13:19;8.30;88.60
32506;DHT22;18955;51.224;8.482;2023-04-01T00:15:47;8.30;88.60
32506;DHT22;18955;51.224;8.482;2023-04-01T00:18:13;8.30;88.60
32506;DHT22;18955;51.224;8.482;2023-04-01T00:20:44;8.20;88.40
32506;DHT22;18955;51.224;8.482;2023-04-01T00:23:11;8.30;88.40
32506;DHT22;18955;51.224;8.482;2023-04-01T00:25:37;8.30;88.50
32506;DHT22;18955;51.224;8.482;2023-04-01T00:28:03;8.30;88.40
32506;DHT22;18955;51.224;8.482;2023-04-01T00:30:30;8.20;88.40
32506;DHT22;18955;51.224;8.482;2023-04-01T00:32:56;8.20;88.40
32506;DHT22;18955;51.224;8.482;2023-04-01T00:35:23;8.20;88.50
32506;DHT22;18955;51.224;8.482;2023-04-01T00:37:49;8.20;88.50
32506;DHT22;18955;51.224;8.482;2023-04-01T00:40:29;8.20;88.50
32506;DHT22;18955;51.224;8.482;2023-04-01T00:42:56;8.20;88.50
32506;DHT22;18955;51.224;8.482;2023-04-01T00:45:37;8.20;88.50
32506;DHT22;18955;51.224;8.482;2023-04-01T00:48:22;8.20;88.60
32506;DHT22;18955;51.224;8.482;2023-04-01T00:50:55;8.20;88.60
32506;DHT22;18955;51.224;8.482;2023-04-01T00:53:23;8.20;88.60
32506;DHT22;18955;51.224;8.482;2023-04-01T00:55:51;8.20;88.60
32506;DHT22;18955;51.224;8.482;2023-04-01T00:58:21;8.20;88.50
32506;DHT22;18955;51.224;8.482;2023-04-01T01:00:50;8.20;88.40
32506;DHT22;18955;51.224;8.482;2023-04-01T01:03:17;8.20;88.40
32506;DHT22;18955;51.224;8.482;2023-04-01T01:08:36;8.10;88.40
32506;DHT22;18955;51.224;8.482;2023-04-01T01:11:05;8.10;88.40
32506;DHT22;18955;51.224;8.482;2023-04-01T01:13:58;8.10;88.50
32506;DHT22;18955;51.224;8.482;2023-04-01T01:16:29;8.10;88.50
32506;DHT22;18955;51.224;8.482;2023-04-01T01:31:23;8.10;88.70
32506;DHT22;18955;51.224;8.482;2023-04-01T01:36:19;8.10;88.60
32506;DHT22;18955;51.224;8.482;2023-04-01T01:38:48;8.10;88.40
32506;DHT22;18955;51.224;8.482;2023-04-01T01:41:16;8.00;88.40
32506;DHT22;18955;51.224;8.482;2023-04-01T01:43:46;8.10;88.50
32506;DHT22;18955;51.224;8.482;2023-04-01T01:46:19;8.00;88.50
32506;DHT22;18955;51.224;8.482;2023-04-01T01:48:49;8.00;88.50
32506;DHT22;18955;51.224;8.482;2023-04-01T01:51:18;8.00;88.50
32506;DHT22;18955;51.224;8.482;2023-04-01T01:53:44;8.00;88.60
32506;DHT22;18955;51.224;8.482;2023-04-01T01:56:11;8.00;88.60
32506;DHT22;18955;51.224;8.482;2023-04-01T01:58:45;8.00;88.60
32506;DHT22;18955;51.224;8.482;2023-04-01T02:01:18;8.00;89.30
32506;DHT22;18955;51.224;8.482;2023-04-01T02:03:47;8.00;88.60
32506;DHT22;18955;51.224;8.482;2023-04-01T02:06:17;8.00;88.70
32506;DHT22;18955;51.224;8.482;2023-04-01T02:08:56;8.00;88.70
32506;DHT22;18955;51.224;8.482;2023-04-01T02:11:32;8.00;88.60
32506;DHT22;18955;51.224;8.482;2023-04-01T02:14:07;8.00;88.40
32506;DHT22;18955;51.224;8.482;2023-04-01T02:16:51;8.00;88.40
32506;DHT22;18955;51.224;8.482;2023-04-01T02:19:20;8.00;88.50
32506;DHT22;18955;51.224;8.482;2023-04-01T02:21:52;7.90;88.50
32506;DHT22;18955;51.224;8.482;2023-04-01T02:24:20;7.90;88.50
32506;DHT22;18955;51.224;8.482;2023-04-01T02:26:50;7.90;88.50
32506;DHT22;18955;51.224;8.482;2023-04-01T02:29:20;7.90;88.70
32506;DHT22;18955;51.224;8.482;2023-04-01T02:31:49;7.90;88.60
32506;DHT22;18955;51.224;8.482;2023-04-01T02:34:16;7.90;88.60
32506;DHT22;18955;51.224;8.482;2023-04-01T02:36:42;7.90;88.60
32506;DHT22;18955;51.224;8.482;2023-04-01T02:39:09;7.90;88.70
32506;DHT22;18955;51.224;8.482;2023-04-01T02:41:40;7.90;89.20
32506;DHT22;18955;51.224;8.482;2023-04-01T02:44:08;7.90;88.70
32506;DHT22;18955;51.224;8.482;2023-04-01T02:46:35;7.90;88.70
32506;DHT22;18955;51.224;8.482;2023-04-01T02:49:02;7.90;88.60
32506;DHT22;18955;51.224;8.482;2023-04-01T02:51:29;7.90;88.50
32506;DHT22;18955;51.224;8.482;2023-04-01T02:53:55;7.90;89.00
32506;DHT22;18955;51.224;8.482;2023-04-01T02:56:21;7.90;88.50
32506;DHT22;18955;51.224;8.482;2023-04-01T02:58:48;7.90;88.50
32506;DHT22;18955;51.224;8.482;2023-04-01T03:01:14;7.80;88.50
32506;DHT22;18955;51.224;8.482;2023-04-01T03:03:41;7.80;88.60
32506;DHT22;18955;51.224;8.482;2023-04-01T03:06:09;7.80;88.60
32506;DHT22;18955;51.224;8.482;2023-04-01T03:08:35;7.80;88.60
32506;DHT22;18955;51.224;8.482;2023-04-01T03:11:02;7.80;88.60
32506;DHT22;18955;51.224;8.482;2023-04-01T03:13:29;7.80;88.60
32506;DHT22;18955;51.224;8.482;2023-04-01T03:15:55;7.80;88.70
32506;DHT22;18955;51.224;8.482;2023-04-01T03:18:22;7.80;88.70
32506;DHT22;18955;51.224;8.482;2023-04-01T03:20:48;7.80;88.70
32506;DHT22;18955;51.224;8.482;2023-04-01T03:23:15;7.80;88.60
32506;DHT22;18955;51.224;8.482;2023-04-01T03:25:43;7.80;88.70
32506;DHT22;18955;51.224;8.482;2023-04-01T03:28:09;7.80;88.50
32506;DHT22;18955;51.224;8.482;2023-04-01T03:30:36;7.70;88.50
32506;DHT22;18955;51.224;8.482;2023-04-01T03:33:03;7.80;88.50
32506;DHT22;18955;51.224;8.482;2023-04-01T03:35:31;7.80;88.50
32506;DHT22;18955;51.224;8.482;2023-04-01T03:37:57;7.70;88.60
32506;DHT22;18955;51.224;8.482;2023-04-01T03:40:24;7.70;88.60
32506;DHT22;18955;51.224;8.482;2023-04-01T03:42:52;7.80;88.60
32506;DHT22;18955;51.224;8.482;2023-04-01T03:45:19;7.70;88.60
32506;DHT22;18955;51.224;8.482;2023-04-01T03:47:45;7.70;88.60
32506;DHT22;18955;51.224;8.482;2023-04-01T03:50:11;7.70;88.60
32506;DHT22;18955;51.224;8.482;2023-04-01T03:52:38;7.70;88.70
32506;DHT22;18955;51.224;8.482;2023-04-01T03:55:05;7.70;88.70
32506;DHT22;18955;51.224;8.482;2023-04-01T03:57:32;7.70;88.80
32506;DHT22;18955;51.224;8.482;2023-04-01T04:00:04;7.70;88.70
32506;DHT22;18955;51.224;8.482;2023-04-01T04:02:39;7.70;88.70
32506;DHT22;18955;51.224;8.482;2023-04-01T04:05:07;7.70;88.60
32506;DHT22;18955;51.224;8.482;2023-04-01T04:07:34;7.70;88.50
32506;DHT22;18955;51.224;8.482;2023-04-01T04:10:04;7.70;88.50
32506;DHT22;18955;51.224;8.482;2023-04-01T04:12:31;7.70;88.50
32506;DHT22;18955;51.224;8.482;2023-04-01T04:14:58;7.70;88.50
32506;DHT22;18955;51.224;8.482;2023-04-01T04:17:24;7.70;88.60
32506;DHT22;18955;51.224;8.482;2023-04-01T04:19:51;7.70;88.60
32506;DHT22;18955;51.224;8.482;2023-04-01T04:22:17;7.60;88.50
32506;DHT22;18955;51.224;8.482;2023-04-01T04:24:43;7.60;88.60
32506;DHT22;18955;51.224;8.482;2023-04-01T04:27:12;7.60;88.60
32506;DHT22;18955;51.224;8.482;2023-04-01T04:29:48;7.60;88.60
32506;DHT22;18955;51.224;8.482;2023-04-01T04:32:14;7.60;88.60
32506;DHT22;18955;51.224;8.482;2023-04-01T04:34:41;7.60;88.70
32506;DHT22;18955;51.224;8.482;2023-04-01T04:37:07;7.60;88.80
32506;DHT22;18955;51.224;8.482;2023-04-01T04:39:35;7.60;88.70
32506;DHT22;18955;51.224;8.482;2023-04-01T04:42:02;7.70;88.70
32506;DHT22;18955;51.224;8.482;2023-04-01T04:44:28;7.60;88.60
32506;DHT22;18955;51.224;8.482;2023-04-01T04:46:55;7.60;88.50
32506;DHT22;18955;51.224;8.482;2023-04-01T04:49:21;7.60;88.40
32506;DHT22;18955;51.224;8.482;2023-04-01T04:51:48;7.60;88.50
32506;DHT22;18955;51.224;8.482;2023-04-01T04:54:16;7.60;88.50
32506;DHT22;18955;51.224;8.482;2023-04-01T04:56:54;7.60;88.60
32506;DHT22;18955;51.224;8.482;2023-04-01T04:59:21;7.60;88.60
32506;DHT22;18955;51.224;8.482;2023-04-01T05:01:56;7.60;88.60
32506;DHT22;18955;51.224;8.482;2023-04-01T05:04:22;7.60;88.60
32506;DHT22;18955;51.224;8.482;2023-04-01T05:06:48;7.60;88.60
32506;DHT22;18955;51.224;8.482;2023-04-01T05:09:16;7.50;88.60
32506;DHT22;18955;51.224;8.482;2023-04-01T05:11:42;7.50;88.70
32506;DHT22;18955;51.224;8.482;2023-04-01T05:14:12;7.50;88.70
32506;DHT22;18955;51.224;8.482;2023-04-01T05:16:38;7.50;88.70
32506;DHT22;18955;51.224;8.482;2023-04-01T05:19:04;7.50;88.70
32506;DHT22;18955;51.224;8.482;2023-04-01T05:21:31;7.50;88.70
32506;DHT22;18955;51.224;8.482;2023-04-01T05:23:58;7.50;88.60
32506;DHT22;18955;51.224;8.482;2023-04-01T05:26:25;7.50;88.60
32506;DHT22;18955;51.224;8.482;2023-04-01T05:28:51;7.50;88.50
32506;DHT22;18955;51.224;8.482;2023-04-01T05:31:17;7.60;88.50
32506;DHT22;18955;51.224;8.482;2023-04-01T05:33:46;7.50;88.50
32506;DHT22;18955;51.224;8.482;2023-04-01T05:36:15;7.50;88.60
32506;DHT22;18955;51.224;8.482;2023-04-01T05:38:42;7.50;88.60
32506;DHT22;18955;51.224;8.482;2023-04-01T05:41:11;7.50;88.60
32506;DHT22;18955;51.224;8.482;2023-04-01T05:43:42;7.50;88.60
32506;DHT22;18955;51.224;8.482;2023-04-01T05:46:27;7.50;88.60
32506;DHT22;18955;51.224;8.482;2023-04-01T05:49:04;7.50;89.20
32506;DHT22;18955;51.224;8.482;2023-04-01T05:51:32;7.50;88.70
32506;DHT22;18955;51.224;8.482;2023-04-01T05:53:58;7.40;88.70
32506;DHT22;18955;51.224;8.482;2023-04-01T05:56:24;7.50;88.80
32506;DHT22;18955;51.224;8.482;2023-04-01T05:58:53;7.50;88.80
32506;DHT22;18955;51.224;8.482;2023-04-01T06:01:22;7.40;88.70
32506;DHT22;18955;51.224;8.482;2023-04-01T06:03:48;7.50;88.70
32506;DHT22;18955;51.224;8.482;2023-04-01T06:06:25;7.40;88.50
32506;DHT22;18955;51.224;8.482;2023-04-01T06:08:57;7.40;88.50
32506;DHT22;18955;51.224;8.482;2023-04-01T06:11:42;7.40;88.50
32506;DHT22;18955;51.224;8.482;2023-04-01T06:27:41;7.40;88.70
32506;DHT22;18955;51.224;8.482;2023-04-01T06:36:11;7.40;88.70
32506;DHT22;18955;51.224;8.482;2023-04-01T06:47:15;7.40;88.60
32506;DHT22;18955;51.224;8.482;2023-04-01T06:56:05;7.40;88.60
32506;DHT22;18955;51.224;8.482;2023-04-01T07:02:04;7.40;88.60
32506;DHT22;18955;51.224;8.482;2023-04-01T07:04:37;7.40;89.20
32506;DHT22;18955;51.224;8.482;2023-04-01T07:07:12;7.40;88.80
32506;DHT22;18955;51.224;8.482;2023-04-01T07:09:52;7.40;88.70
32506;DHT22;18955;51.224;8.482;2023-04-01T07:15:36;7.30;88.80
32506;DHT22;18955;51.224;8.482;2023-04-01T07:18:16;7.30;88.70
32506;DHT22;18955;51.224;8.482;2023-04-01T07:20:44;7.30;88.60
32506;DHT22;18955;51.224;8.482;2023-04-01T07:23:21;7.40;88.70
32506;DHT22;18955;51.224;8.482;2023-04-01T07:26:22;7.40;88.70
32506;DHT22;18955;51.224;8.482;2023-04-01T07:28:58;7.40;88.70
32506;DHT22;18955;51.224;8.482;2023-04-01T07:31:45;7.40;88.60
32506;DHT22;18955;51.224;8.482;2023-04-01T07:48:40;7.40;88.60
32506;DHT22;18955;51.224;8.482;2023-04-01T07:51:32;7.40;88.50
32506;DHT22;18955;51.224;8.482;2023-04-01T08:05:29;7.40;88.50
32506;DHT22;18955;51.224;8.482;2023-04-01T08:08:23;7.40;88.50
32506;DHT22;18955;51.224;8.482;2023-04-01T08:11:04;7.40;88.50
32506;DHT22;18955;51.224;8.482;2023-04-01T08:14:16;7.40;88.50
32506;DHT22;18955;51.224;8.482;2023-04-01T08:25:05;7.40;88.50
32506;DHT22;18955;51.224;8.482;2023-04-01T08:30:25;7.40;88.60
32506;DHT22;18955;51.224;8.482;2023-04-01T08:32:58;7.40;88.50
32506;DHT22;18955;51.224;8.482;2023-04-01T08:35:39;7.40;88.50
32506;DHT22;18955;51.224;8.482;2023-04-01T08:38:23;7.40;88.50
32506;DHT22;18955;51.224;8.482;2023-04-01T08:52:13;7.50;88.60
32506;DHT22;18955;51.224;8.482;2023-04-01T09:35:21;7.60;88.50
32506;DHT22;18955;51.224;8.482;2023-04-01T09:49:38;7.60;88.60
32506;DHT22;18955;51.224;8.482;2023-04-01T10:01:39;7.60;88.60
32506;DHT22;18955;51.224;8.482;2023-04-01T10:36:34;7.80;88.70
32506;DHT22;18955;51.224;8.482;2023-04-01T10:48:34;7.80;88.70
32506;DHT22;18955;51.224;8.482;2023-04-01T10:51:25;7.80;88.60
32506;DHT22;18955;51.224;8.482;2023-04-01T10:54:03;7.80;88.60
32506;DHT22;18955;51.224;8.482;2023-04-01T10:56:56;7.90;88.60
32506;DHT22;18955;51.224;8.482;2023-04-01T11:02:45;7.90;88.60
32506;DHT22;18955;51.224;8.482;2023-04-01T11:31:57;8.00;88.70
32506;DHT22;18955;51.224;8.482;2023-04-01T11:34:47;8.00;88.60
32506;DHT22;18955;51.224;8.482;2023-04-01T11:40:56;8.00;88.60
32506;DHT22;18955;51.224;8.482;2023-04-01T11:47:00;8.00;88.60
32506;DHT22;18955;51.224;8.482;2023-04-01T12:26:53;8.20;89.20
32506;DHT22;18955;51.224;8.482;2023-04-01T12:38:13;8.20;88.80
32506;DHT22;18955;51.224;8.482;2023-04-01T12:57:31;8.30;88.70
32506;DHT22;18955;51.224;8.482;2023-04-01T13:06:04;8.30;88.80
32506;DHT22;18955;51.224;8.482;2023-04-01T13:17:14;8.40;89.00
32506;DHT22;18955;51.224;8.482;2023-04-01T13:22:27;8.40;89.00
32506;DHT22;18955;51.224;8.482;2023-04-01T13:28:35;8.40;88.90
32506;DHT22;18955;51.224;8.482;2023-04-01T13:31:01;8.40;88.80
32506;DHT22;18955;51.224;8.482;2023-04-01T13:34:00;8.50;88.90
32506;DHT22;18955;51.224;8.482;2023-04-01T13:37:05;8.40;88.90
32506;DHT22;18955;51.224;8.482;2023-04-01T13:39:56;8.50;88.90
32506;DHT22;18955;51.224;8.482;2023-04-01T13:42:45;8.50;89.00
32506;DHT22;18955;51.224;8.482;2023-04-01T14:01:53;8.50;89.10
32506;DHT22;18955;51.224;8.482;2023-04-01T14:07:31;8.50;89.00
32506;DHT22;18955;51.224;8.482;2023-04-01T14:13:00;8.60;89.00
32506;DHT22;18955;51.224;8.482;2023-04-01T14:21:12;8.60;89.00
32506;DHT22;18955;51.224;8.482;2023-04-01T14:32:17;8.60;89.10
32506;DHT22;18955;51.224;8.482;2023-04-01T14:40:28;8.60;89.20
32506;DHT22;18955;51.224;8.482;2023-04-01T14:43:21;8.60;89.20
32506;DHT22;18955;51.224;8.482;2023-04-01T14:51:35;8.70;89.20
32506;DHT22;18955;51.224;8.482;2023-04-01T14:54:30;8.70;89.20
32506;DHT22;18955;51.224;8.482;2023-04-01T14:57:14;8.70;89.20
32506;DHT22;18955;51.224;8.482;2023-04-01T14:59:47;8.70;89.10
32506;DHT22;18955;51.224;8.482;2023-04-01T15:05:05;8.70;89.20
32506;DHT22;18955;51.224;8.482;2023-04-01T15:31:10;8.70;89.10
32506;DHT22;18955;51.224;8.482;2023-04-01T15:36:19;8.70;89.10
32506;DHT22;18955;51.224;8.482;2023-04-01T15:45:02;8.70;89.20
32506;DHT22;18955;51.224;8.482;2023-04-01T15:50:40;8.70;89.20
32506;DHT22;18955;51.224;8.482;2023-04-01T15:59:37;8.70;89.20
32506;DHT22;18955;51.224;8.482;2023-04-01T16:05:09;8.70;89.10
32506;DHT22;18955;51.224;8.482;2023-04-01T16:16:33;8.80;89.20
32506;DHT22;18955;51.224;8.482;2023-04-01T16:25:07;8.70;89.20
32506;DHT22;18955;51.224;8.482;2023-04-01T16:47:50;8.80;89.20
32506;DHT22;18955;51.224;8.482;2023-04-01T16:50:44;8.80;89.20
32506;DHT22;18955;51.224;8.482;2023-04-01T16:58:36;8.80;89.20
32506;DHT22;18955;51.224;8.482;2023-04-01T17:01:16;8.80;89.30
32506;DHT22;18955;51.224;8.482;2023-04-01T17:03:50;8.80;89.30
32506;DHT22;18955;51.224;8.482;2023-04-01T17:11:29;8.80;89.20
32506;DHT22;18955;51.224;8.482;2023-04-01T17:14:10;8.80;89.30
32506;DHT22;18955;51.224;8.482;2023-04-01T17:22:43;8.80;89.20
32506;DHT22;18955;51.224;8.482;2023-04-01T17:27:54;8.80;89.20
32506;DHT22;18955;51.224;8.482;2023-04-01T17:33:53;8.70;89.20
32506;DHT22;18955;51.224;8.482;2023-04-01T18:10:17;8.70;89.20
32506;DHT22;18955;51.224;8.482;2023-04-01T18:18:10;8.70;89.20
32506;DHT22;18955;51.224;8.482;2023-04-01T18:26:39;8.70;89.20
32506;DHT22;18955;51.224;8.482;2023-04-01T18:31:51;8.70;89.70
32506;DHT22;18955;51.224;8.482;2023-04-01T18:35:00;8.70;89.10
32506;DHT22;18955;51.224;8.482;2023-04-01T18:37:32;8.70;89.20
32506;DHT22;18955;51.224;8.482;2023-04-01T18:42:55;8.60;89.10
32506;DHT22;18955;51.224;8.482;2023-04-01T18:54:11;8.60;89.00
32506;DHT22;18955;51.224;8.482;2023-04-01T18:56:41;8.60;89.20
32506;DHT22;18955;51.224;8.482;2023-04-01T19:15:24;8.60;89.00
32506;DHT22;18955;51.224;8.482;2023-04-01T19:18:22;8.60;89.10
32506;DHT22;18955;51.224;8.482;2023-04-01T19:21:14;8.60;89.10
32506;DHT22;18955;51.224;8.482;2023-04-01T19:26:53;8.50;89.00
32506;DHT22;18955;51.224;8.482;2023-04-01T19:53:52;8.50;89.00
32506;DHT22;18955;51.224;8.482;2023-04-01T19:56:23;8.50;89.00
32506;DHT22;18955;51.224;8.482;2023-04-01T20:01:41;8.40;88.90
32506;DHT22;18955;51.224;8.482;2023-04-01T20:04:17;8.50;89.00
32506;DHT22;18955;51.224;8.482;2023-04-01T20:15:37;8.40;89.10
32506;DHT22;18955;51.224;8.482;2023-04-01T20:18:33;8.40;89.10
32506;DHT22;18955;51.224;8.482;2023-04-01T20:24:20;8.40;89.00
32506;DHT22;18955;51.224;8.482;2023-04-01T20:29:55;8.40;89.00
32506;DHT22;18955;51.224;8.482;2023-04-01T20:33:10;8.40;89.00
32506;DHT22;18955;51.224;8.482;2023-04-01T20:36:06;8.40;89.10
32506;DHT22;18955;51.224;8.482;2023-04-01T20:50:31;8.40;89.00
32506;DHT22;18955;51.224;8.482;2023-04-01T21:15:37;8.30;89.00
32506;DHT22;18955;51.224;8.482;2023-04-01T22:00:37;8.20;89.10
32506;DHT22;18955;51.224;8.482;2023-04-01T22:11:15;8.20;89.00
32506;DHT22;18955;51.224;8.482;2023-04-01T22:13:59;8.20;89.00
32506;DHT22;18955;51.224;8.482;2023-04-01T22:27:46;8.10;89.00
32506;DHT22;18955;51.224;8.482;2023-04-01T22:32:47;8.10;89.00
32506;DHT22;18955;51.224;8.482;2023-04-01T22:38:30;8.10;89.10
32506;DHT22;18955;51.224;8.482;2023-04-01T22:41:12;8.10;89.00
32506;DHT22;18955;51.224;8.482;2023-04-01T22:43:40;8.10;89.10
32506;DHT22;18955;51.224;8.482;2023-04-01T22:49:07;8.10;89.00
32506;DHT22;18955;51.224;8.482;2023-04-01T22:51:55;8.10;89.00
32506;DHT22;18955;51.224;8.482;2023-04-01T22:54:34;8.10;89.00
32506;DHT22;18955;51.224;8.482;2023-04-01T22:57:11;8.10;89.00
32506;DHT22;18955;51.224;8.482;2023-04-01T23:00:07;8.10;89.10
32506;DHT22;18955;51.224;8.482;2023-04-01T23:05:25;8.10;89.10
32506;DHT22;18955;51.224;8.482;2023-04-01T23:12:49;8.10;89.20
32506;DHT22;18955;51.224;8.482;2023-04-01T23:15:17;8.10;89.20
32506;DHT22;18955;51.224;8.482;2023-04-01T23:18:09;8.10;89.10
32506;DHT22;18955;51.224;8.482;2023-04-01T23:23:39;8.10;89.10
32506;DHT22;18955;51.224;8.482;2023-04-01T23:28:43;8.10;89.10
32506;DHT22;18955;51.224;8.482;2023-04-01T23:31:39;8.10;89.10
32506;DHT22;18955;51.224;8.482;2023-04-01T23:36:44;8.00;89.00
32506;DHT22;18955;51.224;8.482;2023-04-01T23:42:07;8.00;89.00
32506;DHT22;18955;51.224;8.482;2023-04-01T23:44:39;8.00;89.00
32506;DHT22;18955;51.224;8.482;2023-04-01T23:47:06;8.00;89.00
32506;DHT22;18955;51.224;8.482;2023-04-01T23:52:48;8.00;89.10
32506;DHT22;18955;51.224;8.482;2023-04-01T23:55:21;8.00;89.10
32506;DHT22;18955;51.224;8.482;2023-04-01T23:58:22;8.00;89.10
